sensor_id;sensor_type;location;lat;lon;timestamp;P1;durP1;ratioP1;P2;durP2;ratioP2
29466;SDS011;60968;37.490;-122.288;2022-09-13T00:01:28;19.83;;;6.43;;
29466;SDS011;60968;37.490;-122.288;2022-09-13T00:04:29;20.13;;;6.70;;
29466;SDS011;60968;37.490;-122.288;2022-09-13T00:07:30;17.33;;;6.40;;
29466;SDS011;60968;37.490;-122.288;2022-09-13T00:10:32;22.40;;;6.67;;
29466;SDS011;60968;37.490;-122.288;2022-09-13T00:13:35;22.87;;;6.77;;
29466;SDS011;60968;37.490;-122.288;2022-09-13T00:16:36;15.70;;;6.27;;
29466;SDS011;60968;37.490;-122.288;2022-09-13T00:19:36;19.70;;;6.77;;
29466;SDS011;60968;37.490;-122.288;2022-09-13T00:22:37;20.37;;;6.30;;
29466;SDS011;60968;37.490;-122.288;2022-09-13T00:25:38;19.57;;;6.63;;
29466;SDS011;60968;37.490;-122.288;2022-09-13T00:28:41;18.37;;;6.47;;
29466;SDS011;60968;37.490;-122.288;2022-09-13T00:31:42;36.53;;;10.17;;
29466;SDS011;60968;37.490;-122.288;2022-09-13T00:34:44;26.80;;;7.00;;
29466;SDS011;60968;37.490;-122.288;2022-09-13T00:37:45;25.33;;;7.73;;
29466;SDS011;60968;37.490;-122.288;2022-09-13T00:40:49;24.23;;;6.47;;
29466;SDS011;60968;37.490;-122.288;2022-09-13T00:43:52;23.47;;;6.83;;
29466;SDS011;60968;37.490;-122.288;2022-09-13T00:46:54;18.63;;;7.00;;
29466;SDS011;60968;37.490;-122.288;2022-09-13T00:50:07;21.60;;;7.13;;
29466;SDS011;60968;37.490;-122.288;2022-09-13T00:53:14;25.43;;;6.87;;
29466;SDS011;60968;37.490;-122.288;2022-09-13T00:56:38;22.67;;;6.37;;
29466;SDS011;60968;37.490;-122.288;2022-09-13T00:59:46;27.80;;;7.27;;
29466;SDS011;60968;37.490;-122.288;2022-09-13T01:02:55;25.70;;;6.80;;
29466;SDS011;60968;37.490;-122.288;2022-09-13T01:06:09;30.37;;;7.00;;
29466;SDS011;60968;37.490;-122.288;2022-09-13T01:09:42;21.33;;;5.83;;
29466;SDS011;60968;37.490;-122.288;2022-09-13T01:15:58;18.90;;;5.93;;
29466;SDS011;60968;37.490;-122.288;2022-09-13T01:18:59;19.83;;;7.10;;
29466;SDS011;60968;37.490;-122.288;2022-09-13T01:29:32;22.33;;;6.73;;
29466;SDS011;60968;37.490;-122.288;2022-09-13T01:39:43;27.43;;;7.97;;
29466;SDS011;60968;37.490;-122.288;2022-09-13T01:50:49;28.83;;;7.03;;
29466;SDS011;60968;37.490;-122.288;2022-09-13T01:57:30;18.67;;;6.70;;
29466;SDS011;60968;37.490;-122.288;2022-09-13T02:00:38;20.07;;;6.30;;
29466;SDS011;60968;37.490;-122.288;2022-09-13T02:04:04;23.17;;;6.67;;
29466;SDS011;60968;37.490;-122.288;2022-09-13T02:07:20;23.17;;;6.47;;
29466;SDS011;60968;37.490;-122.288;2022-09-13T02:10:51;20.13;;;6.27;;
29466;SDS011;60968;37.490;-122.288;2022-09-13T02:14:20;28.90;;;7.63;;
29466;SDS011;60968;37.490;-122.288;2022-09-13T02:17:26;23.37;;;6.37;;
29466;SDS011;60968;37.490;-122.288;2022-09-13T02:20:32;25.77;;;7.10;;
29466;SDS011;60968;37.490;-122.288;2022-09-13T02:24:01;27.50;;;7.23;;
29466;SDS011;60968;37.490;-122.288;2022-09-13T02:27:36;21.43;;;6.67;;
29466;SDS011;60968;37.490;-122.288;2022-09-13T02:30:42;25.83;;;6.80;;
29466;SDS011;60968;37.490;-122.288;2022-09-13T02:33:49;25.50;;;6.20;;
29466;SDS011;60968;37.490;-122.288;2022-09-13T02:36:57;18.43;;;6.10;;
29466;SDS011;60968;37.490;-122.288;2022-09-13T02:40:02;23.87;;;5.97;;
29466;SDS011;60968;37.490;-122.288;2022-09-13T02:43:11;20.97;;;5.87;;
29466;SDS011;60968;37.490;-122.288;2022-09-13T02:49:47;19.63;;;6.17;;
29466;SDS011;60968;37.490;-122.288;2022-09-13T02:56:30;19.17;;;6.23;;
29466;SDS011;60968;37.490;-122.288;2022-09-13T02:59:44;24.23;;;5.60;;
29466;SDS011;60968;37.490;-122.288;2022-09-13T03:02:47;22.53;;;6.17;;
29466;SDS011;60968;37.490;-122.288;2022-09-13T03:05:49;21.13;;;5.80;;
29466;SDS011;60968;37.490;-122.288;2022-09-13T03:08:50;18.10;;;5.40;;
29466;SDS011;60968;37.490;-122.288;2022-09-13T03:18:48;19.20;;;6.23;;
29466;SDS011;60968;37.490;-122.288;2022-09-13T03:22:17;17.47;;;5.07;;
29466;SDS011;60968;37.490;-122.288;2022-09-13T03:25:36;18.27;;;5.37;;
29466;SDS011;60968;37.490;-122.288;2022-09-13T03:39:15;19.90;;;5.33;;
29466;SDS011;60968;37.490;-122.288;2022-09-13T03:42:45;12.30;;;4.63;;
29466;SDS011;60968;37.490;-122.288;2022-09-13T03:45:54;20.33;;;5.03;;
29466;SDS011;60968;37.490;-122.288;2022-09-13T03:49:02;16.50;;;5.37;;
29466;SDS011;60968;37.490;-122.288;2022-09-13T03:52:09;15.57;;;5.17;;
29466;SDS011;60968;37.490;-122.288;2022-09-13T03:55:10;21.53;;;5.37;;
29466;SDS011;60968;37.490;-122.288;2022-09-13T03:58:13;16.80;;;5.40;;
29466;SDS011;60968;37.490;-122.288;2022-09-13T04:01:17;18.13;;;5.83;;
29466;SDS011;60968;37.490;-122.288;2022-09-13T04:04:21;17.77;;;5.67;;
29466;SDS011;60968;37.490;-122.288;2022-09-13T04:07:23;19.93;;;5.33;;
29466;SDS011;60968;37.490;-122.288;2022-09-13T04:10:24;19.13;;;5.10;;
29466;SDS011;60968;37.490;-122.288;2022-09-13T04:13:25;15.97;;;4.80;;
29466;SDS011;60968;37.490;-122.288;2022-09-13T04:16:26;19.33;;;5.67;;
29466;SDS011;60968;37.490;-122.288;2022-09-13T04:19:28;22.10;;;5.67;;
29466;SDS011;60968;37.490;-122.288;2022-09-13T04:22:29;18.17;;;5.07;;
29466;SDS011;60968;37.490;-122.288;2022-09-13T04:25:36;17.20;;;5.20;;
29466;SDS011;60968;37.490;-122.288;2022-09-13T04:28:40;19.23;;;4.67;;
29466;SDS011;60968;37.490;-122.288;2022-09-13T04:31:42;15.77;;;5.10;;
29466;SDS011;60968;37.490;-122.288;2022-09-13T04:34:46;14.83;;;5.10;;
29466;SDS011;60968;37.490;-122.288;2022-09-13T04:37:47;17.03;;;5.10;;
29466;SDS011;60968;37.490;-122.288;2022-09-13T04:40:52;21.17;;;5.40;;
29466;SDS011;60968;37.490;-122.288;2022-09-13T04:43:54;13.93;;;4.60;;
29466;SDS011;60968;37.490;-122.288;2022-09-13T04:46:56;19.73;;;6.17;;
29466;SDS011;60968;37.490;-122.288;2022-09-13T04:49:59;15.73;;;5.23;;
29466;SDS011;60968;37.490;-122.288;2022-09-13T04:53:00;19.23;;;5.40;;
29466;SDS011;60968;37.490;-122.288;2022-09-13T04:56:02;22.93;;;5.73;;
29466;SDS011;60968;37.490;-122.288;2022-09-13T04:59:03;18.47;;;5.67;;
29466;SDS011;60968;37.490;-122.288;2022-09-13T05:02:04;28.57;;;5.77;;
29466;SDS011;60968;37.490;-122.288;2022-09-13T05:05:06;20.03;;;5.40;;
29466;SDS011;60968;37.490;-122.288;2022-09-13T05:08:08;20.90;;;5.40;;
29466;SDS011;60968;37.490;-122.288;2022-09-13T05:11:10;20.57;;;5.93;;
29466;SDS011;60968;37.490;-122.288;2022-09-13T05:14:11;17.37;;;5.93;;
29466;SDS011;60968;37.490;-122.288;2022-09-13T05:17:12;24.50;;;5.87;;
29466;SDS011;60968;37.490;-122.288;2022-09-13T05:20:13;24.33;;;5.87;;
29466;SDS011;60968;37.490;-122.288;2022-09-13T05:23:14;20.90;;;5.23;;
29466;SDS011;60968;37.490;-122.288;2022-09-13T05:26:15;26.40;;;5.30;;
29466;SDS011;60968;37.490;-122.288;2022-09-13T05:29:16;20.17;;;4.93;;
29466;SDS011;60968;37.490;-122.288;2022-09-13T05:32:17;17.27;;;5.10;;
29466;SDS011;60968;37.490;-122.288;2022-09-13T05:35:18;16.90;;;5.20;;
29466;SDS011;60968;37.490;-122.288;2022-09-13T05:38:19;21.90;;;6.23;;
29466;SDS011;60968;37.490;-122.288;2022-09-13T05:41:22;18.83;;;5.57;;
29466;SDS011;60968;37.490;-122.288;2022-09-13T05:44:23;23.93;;;5.40;;
29466;SDS011;60968;37.490;-122.288;2022-09-13T05:47:24;21.53;;;5.90;;
29466;SDS011;60968;37.490;-122.288;2022-09-13T05:50:24;17.97;;;5.20;;
29466;SDS011;60968;37.490;-122.288;2022-09-13T05:53:27;14.57;;;5.20;;
29466;SDS011;60968;37.490;-122.288;2022-09-13T05:56:28;21.23;;;5.73;;
29466;SDS011;60968;37.490;-122.288;2022-09-13T05:59:29;20.83;;;5.07;;
29466;SDS011;60968;37.490;-122.288;2022-09-13T06:02:31;14.03;;;4.43;;
29466;SDS011;60968;37.490;-122.288;2022-09-13T06:05:32;14.93;;;4.23;;
29466;SDS011;60968;37.490;-122.288;2022-09-13T06:08:34;16.77;;;4.93;;
29466;SDS011;60968;37.490;-122.288;2022-09-13T06:11:35;19.53;;;5.13;;
29466;SDS011;60968;37.490;-122.288;2022-09-13T06:14:36;24.47;;;4.93;;
29466;SDS011;60968;37.490;-122.288;2022-09-13T06:17:37;21.87;;;4.80;;
29466;SDS011;60968;37.490;-122.288;2022-09-13T06:20:39;22.03;;;5.17;;
29466;SDS011;60968;37.490;-122.288;2022-09-13T06:23:41;17.50;;;4.90;;
29466;SDS011;60968;37.490;-122.288;2022-09-13T06:26:42;23.17;;;5.10;;
29466;SDS011;60968;37.490;-122.288;2022-09-13T06:29:42;17.10;;;5.13;;
29466;SDS011;60968;37.490;-122.288;2022-09-13T06:32:43;17.37;;;4.57;;
29466;SDS011;60968;37.490;-122.288;2022-09-13T06:35:44;20.07;;;4.90;;
29466;SDS011;60968;37.490;-122.288;2022-09-13T06:38:45;14.90;;;4.80;;
29466;SDS011;60968;37.490;-122.288;2022-09-13T06:41:47;16.57;;;5.27;;
29466;SDS011;60968;37.490;-122.288;2022-09-13T06:44:48;9.93;;;4.07;;
29466;SDS011;60968;37.490;-122.288;2022-09-13T06:47:49;12.43;;;4.33;;
29466;SDS011;60968;37.490;-122.288;2022-09-13T06:50:56;13.10;;;4.30;;
29466;SDS011;60968;37.490;-122.288;2022-09-13T06:53:58;17.10;;;4.83;;
29466;SDS011;60968;37.490;-122.288;2022-09-13T06:57:02;21.20;;;5.13;;
29466;SDS011;60968;37.490;-122.288;2022-09-13T07:00:03;15.77;;;4.73;;
29466;SDS011;60968;37.490;-122.288;2022-09-13T07:03:07;19.50;;;5.03;;
29466;SDS011;60968;37.490;-122.288;2022-09-13T07:06:11;17.37;;;4.97;;
29466;SDS011;60968;37.490;-122.288;2022-09-13T07:09:15;17.70;;;5.00;;
29466;SDS011;60968;37.490;-122.288;2022-09-13T07:12:17;18.17;;;4.80;;
29466;SDS011;60968;37.490;-122.288;2022-09-13T07:15:18;15.27;;;4.63;;
29466;SDS011;60968;37.490;-122.288;2022-09-13T07:18:19;17.53;;;4.80;;
29466;SDS011;60968;37.490;-122.288;2022-09-13T07:21:21;15.97;;;5.17;;
29466;SDS011;60968;37.490;-122.288;2022-09-13T07:24:22;11.10;;;4.47;;
29466;SDS011;60968;37.490;-122.288;2022-09-13T07:27:24;11.80;;;3.90;;
29466;SDS011;60968;37.490;-122.288;2022-09-13T07:30:25;14.53;;;4.13;;
29466;SDS011;60968;37.490;-122.288;2022-09-13T07:33:27;20.40;;;4.57;;
29466;SDS011;60968;37.490;-122.288;2022-09-13T07:36:29;9.50;;;3.67;;
29466;SDS011;60968;37.490;-122.288;2022-09-13T07:39:31;10.27;;;4.03;;
29466;SDS011;60968;37.490;-122.288;2022-09-13T07:42:32;13.43;;;4.50;;
29466;SDS011;60968;37.490;-122.288;2022-09-13T07:45:33;20.37;;;4.87;;
29466;SDS011;60968;37.490;-122.288;2022-09-13T07:48:35;12.43;;;4.30;;
29466;SDS011;60968;37.490;-122.288;2022-09-13T07:51:38;12.23;;;4.50;;
29466;SDS011;60968;37.490;-122.288;2022-09-13T07:54:40;16.80;;;5.30;;
29466;SDS011;60968;37.490;-122.288;2022-09-13T07:57:41;14.00;;;4.97;;
29466;SDS011;60968;37.490;-122.288;2022-09-13T08:00:42;18.73;;;5.43;;
29466;SDS011;60968;37.490;-122.288;2022-09-13T08:03:49;16.13;;;5.43;;
29466;SDS011;60968;37.490;-122.288;2022-09-13T08:06:54;13.50;;;4.67;;
29466;SDS011;60968;37.490;-122.288;2022-09-13T08:09:55;10.43;;;4.13;;
29466;SDS011;60968;37.490;-122.288;2022-09-13T08:12:56;12.27;;;3.90;;
29466;SDS011;60968;37.490;-122.288;2022-09-13T08:16:04;10.73;;;3.63;;
29466;SDS011;60968;37.490;-122.288;2022-09-13T08:19:09;14.40;;;4.27;;
29466;SDS011;60968;37.490;-122.288;2022-09-13T08:22:11;12.67;;;3.90;;
29466;SDS011;60968;37.490;-122.288;2022-09-13T08:25:12;11.90;;;3.93;;
29466;SDS011;60968;37.490;-122.288;2022-09-13T08:28:15;15.80;;;4.37;;
29466;SDS011;60968;37.490;-122.288;2022-09-13T08:31:18;11.07;;;3.93;;
29466;SDS011;60968;37.490;-122.288;2022-09-13T08:34:19;19.27;;;4.67;;
29466;SDS011;60968;37.490;-122.288;2022-09-13T08:37:20;10.10;;;4.70;;
29466;SDS011;60968;37.490;-122.288;2022-09-13T08:40:21;10.73;;;4.50;;
29466;SDS011;60968;37.490;-122.288;2022-09-13T08:46:48;18.07;;;5.17;;
29466;SDS011;60968;37.490;-122.288;2022-09-13T08:49:50;17.93;;;5.23;;
29466;SDS011;60968;37.490;-122.288;2022-09-13T09:03:11;21.97;;;4.70;;
29466;SDS011;60968;37.490;-122.288;2022-09-13T09:06:15;15.60;;;5.20;;
29466;SDS011;60968;37.490;-122.288;2022-09-13T09:09:17;15.30;;;5.00;;
29466;SDS011;60968;37.490;-122.288;2022-09-13T09:15:41;12.17;;;4.97;;
29466;SDS011;60968;37.490;-122.288;2022-09-13T09:19:24;13.17;;;4.83;;
29466;SDS011;60968;37.490;-122.288;2022-09-13T09:22:42;23.57;;;4.97;;
29466;SDS011;60968;37.490;-122.288;2022-09-13T09:25:45;15.07;;;4.80;;
29466;SDS011;60968;37.490;-122.288;2022-09-13T09:38:41;15.50;;;4.97;;
29466;SDS011;60968;37.490;-122.288;2022-09-13T09:41:43;15.07;;;5.53;;
29466;SDS011;60968;37.490;-122.288;2022-09-13T09:44:46;13.73;;;4.37;;
29466;SDS011;60968;37.490;-122.288;2022-09-13T09:47:50;11.10;;;4.73;;
29466;SDS011;60968;37.490;-122.288;2022-09-13T09:50:55;12.03;;;4.63;;
29466;SDS011;60968;37.490;-122.288;2022-09-13T09:53:59;15.77;;;5.10;;
29466;SDS011;60968;37.490;-122.288;2022-09-13T09:57:04;12.47;;;4.83;;
29466;SDS011;60968;37.490;-122.288;2022-09-13T10:00:11;15.63;;;4.73;;
29466;SDS011;60968;37.490;-122.288;2022-09-13T10:03:17;14.57;;;5.47;;
29466;SDS011;60968;37.490;-122.288;2022-09-13T10:06:21;11.50;;;4.67;;
29466;SDS011;60968;37.490;-122.288;2022-09-13T10:09:25;13.93;;;5.00;;
29466;SDS011;60968;37.490;-122.288;2022-09-13T10:12:29;16.23;;;4.90;;
29466;SDS011;60968;37.490;-122.288;2022-09-13T10:15:34;12.67;;;4.07;;
29466;SDS011;60968;37.490;-122.288;2022-09-13T10:18:35;16.47;;;4.27;;
29466;SDS011;60968;37.490;-122.288;2022-09-13T10:21:36;11.83;;;3.97;;
29466;SDS011;60968;37.490;-122.288;2022-09-13T10:24:38;13.27;;;4.63;;
29466;SDS011;60968;37.490;-122.288;2022-09-13T10:27:40;13.90;;;4.10;;
29466;SDS011;60968;37.490;-122.288;2022-09-13T10:30:48;15.07;;;3.93;;
29466;SDS011;60968;37.490;-122.288;2022-09-13T10:37:25;17.03;;;4.33;;
29466;SDS011;60968;37.490;-122.288;2022-09-13T10:43:48;12.80;;;3.83;;
29466;SDS011;60968;37.490;-122.288;2022-09-13T10:46:55;14.83;;;3.70;;
29466;SDS011;60968;37.490;-122.288;2022-09-13T10:50:20;9.30;;;3.07;;
29466;SDS011;60968;37.490;-122.288;2022-09-13T10:53:35;11.60;;;4.00;;
29466;SDS011;60968;37.490;-122.288;2022-09-13T10:56:38;14.00;;;4.17;;
29466;SDS011;60968;37.490;-122.288;2022-09-13T10:59:39;13.17;;;3.90;;
29466;SDS011;60968;37.490;-122.288;2022-09-13T11:03:25;12.57;;;3.93;;
29466;SDS011;60968;37.490;-122.288;2022-09-13T11:19:42;11.13;;;3.33;;
29466;SDS011;60968;37.490;-122.288;2022-09-13T11:30:08;10.50;;;3.50;;
29466;SDS011;60968;37.490;-122.288;2022-09-13T11:33:23;9.97;;;3.23;;
29466;SDS011;60968;37.490;-122.288;2022-09-13T11:46:53;4.50;;;2.37;;
29466;SDS011;60968;37.490;-122.288;2022-09-13T11:50:33;9.43;;;3.27;;
29466;SDS011;60968;37.490;-122.288;2022-09-13T11:57:02;12.53;;;3.43;;
29466;SDS011;60968;37.490;-122.288;2022-09-13T12:06:54;6.00;;;2.70;;
29466;SDS011;60968;37.490;-122.288;2022-09-13T12:10:21;9.53;;;2.63;;
29466;SDS011;60968;37.490;-122.288;2022-09-13T12:13:35;8.03;;;2.30;;
29466;SDS011;60968;37.490;-122.288;2022-09-13T12:16:45;9.30;;;2.90;;
29466;SDS011;60968;37.490;-122.288;2022-09-13T12:20:43;8.57;;;2.80;;
29466;SDS011;60968;37.490;-122.288;2022-09-13T12:27:22;10.97;;;2.40;;
29466;SDS011;60968;37.490;-122.288;2022-09-13T12:34:25;7.27;;;2.37;;
29466;SDS011;60968;37.490;-122.288;2022-09-13T12:37:57;5.90;;;2.40;;
29466;SDS011;60968;37.490;-122.288;2022-09-13T13:02:00;8.33;;;2.47;;
29466;SDS011;60968;37.490;-122.288;2022-09-13T13:08:34;7.40;;;2.20;;
29466;SDS011;60968;37.490;-122.288;2022-09-13T13:11:43;9.40;;;3.17;;
29466;SDS011;60968;37.490;-122.288;2022-09-13T13:14:47;6.13;;;2.30;;
29466;SDS011;60968;37.490;-122.288;2022-09-13T13:24:37;9.27;;;2.60;;
29466;SDS011;60968;37.490;-122.288;2022-09-13T13:27:44;8.87;;;3.07;;
29466;SDS011;60968;37.490;-122.288;2022-09-13T13:30:52;9.13;;;2.77;;
29466;SDS011;60968;37.490;-122.288;2022-09-13T13:33:54;8.27;;;2.67;;
29466;SDS011;60968;37.490;-122.288;2022-09-13T13:40:19;11.50;;;2.90;;
29466;SDS011;60968;37.490;-122.288;2022-09-13T13:43:31;10.80;;;2.77;;
29466;SDS011;60968;37.490;-122.288;2022-09-13T13:46:33;4.80;;;2.43;;
29466;SDS011;60968;37.490;-122.288;2022-09-13T13:52:59;10.07;;;2.70;;
29466;SDS011;60968;37.490;-122.288;2022-09-13T13:56:21;4.90;;;2.37;;
29466;SDS011;60968;37.490;-122.288;2022-09-13T13:59:31;10.17;;;3.20;;
29466;SDS011;60968;37.490;-122.288;2022-09-13T14:02:45;9.33;;;3.10;;
29466;SDS011;60968;37.490;-122.288;2022-09-13T14:09:26;10.20;;;2.70;;
29466;SDS011;60968;37.490;-122.288;2022-09-13T14:16:03;6.10;;;2.50;;
29466;SDS011;60968;37.490;-122.288;2022-09-13T14:19:21;5.43;;;2.50;;
29466;SDS011;60968;37.490;-122.288;2022-09-13T14:22:29;6.17;;;2.53;;
29466;SDS011;60968;37.490;-122.288;2022-09-13T14:25:30;7.10;;;1.67;;
29466;SDS011;60968;37.490;-122.288;2022-09-13T14:28:31;5.73;;;1.93;;
29466;SDS011;60968;37.490;-122.288;2022-09-13T14:31:32;12.20;;;2.00;;
29466;SDS011;60968;37.490;-122.288;2022-09-13T14:34:34;5.17;;;1.60;;
29466;SDS011;60968;37.490;-122.288;2022-09-13T14:37:38;8.63;;;1.70;;
29466;SDS011;60968;37.490;-122.288;2022-09-13T14:40:39;5.80;;;1.77;;
29466;SDS011;60968;37.490;-122.288;2022-09-13T14:43:40;4.83;;;1.30;;
29466;SDS011;60968;37.490;-122.288;2022-09-13T14:46:43;4.97;;;1.47;;
29466;SDS011;60968;37.490;-122.288;2022-09-13T14:49:49;5.00;;;1.63;;
29466;SDS011;60968;37.490;-122.288;2022-09-13T14:53:02;7.33;;;1.80;;
29466;SDS011;60968;37.490;-122.288;2022-09-13T14:56:10;9.30;;;1.93;;
29466;SDS011;60968;37.490;-122.288;2022-09-13T15:02:30;6.27;;;1.40;;
29466;SDS011;60968;37.490;-122.288;2022-09-13T15:05:35;7.37;;;1.70;;
29466;SDS011;60968;37.490;-122.288;2022-09-13T15:08:40;4.50;;;1.47;;
29466;SDS011;60968;37.490;-122.288;2022-09-13T15:11:57;5.90;;;1.85;;
29466;SDS011;60968;37.490;-122.288;2022-09-13T15:18:31;3.97;;;1.95;;
29466;SDS011;60968;37.490;-122.288;2022-09-13T15:21:34;2.42;;;1.60;;
29466;SDS011;60968;37.490;-122.288;2022-09-13T15:24:35;1.90;;;1.70;;
29466;SDS011;60968;37.490;-122.288;2022-09-13T15:27:43;3.38;;;1.77;;
29466;SDS011;60968;37.490;-122.288;2022-09-13T15:30:46;4.38;;;1.88;;
29466;SDS011;60968;37.490;-122.288;2022-09-13T15:33:47;6.38;;;2.05;;
29466;SDS011;60968;37.490;-122.288;2022-09-13T15:37:30;4.63;;;1.30;;
29466;SDS011;60968;37.490;-122.288;2022-09-13T15:40:14;2.17;;;1.30;;
29466;SDS011;60968;37.490;-122.288;2022-09-13T15:43:19;7.33;;;1.47;;
29466;SDS011;60968;37.490;-122.288;2022-09-13T15:46:22;3.57;;;1.40;;
29466;SDS011;60968;37.490;-122.288;2022-09-13T15:49:24;4.23;;;1.43;;
29466;SDS011;60968;37.490;-122.288;2022-09-13T15:52:28;4.07;;;1.43;;
29466;SDS011;60968;37.490;-122.288;2022-09-13T15:55:30;3.70;;;1.50;;
29466;SDS011;60968;37.490;-122.288;2022-09-13T15:58:31;2.13;;;1.20;;
29466;SDS011;60968;37.490;-122.288;2022-09-13T16:01:32;1.90;;;1.33;;
29466;SDS011;60968;37.490;-122.288;2022-09-13T16:04:33;5.30;;;1.00;;
29466;SDS011;60968;37.490;-122.288;2022-09-13T16:07:34;2.70;;;1.27;;
29466;SDS011;60968;37.490;-122.288;2022-09-13T16:10:35;4.57;;;1.37;;
29466;SDS011;60968;37.490;-122.288;2022-09-13T16:13:39;4.83;;;1.30;;
29466;SDS011;60968;37.490;-122.288;2022-09-13T16:16:40;3.63;;;1.30;;
29466;SDS011;60968;37.490;-122.288;2022-09-13T16:19:41;3.33;;;1.27;;
29466;SDS011;60968;37.490;-122.288;2022-09-13T16:22:42;3.47;;;1.20;;
29466;SDS011;60968;37.490;-122.288;2022-09-13T16:25:42;1.57;;;0.90;;
29466;SDS011;60968;37.490;-122.288;2022-09-13T16:28:44;4.07;;;1.20;;
29466;SDS011;60968;37.490;-122.288;2022-09-13T16:31:45;2.63;;;1.10;;
29466;SDS011;60968;37.490;-122.288;2022-09-13T16:34:45;2.97;;;1.10;;
29466;SDS011;60968;37.490;-122.288;2022-09-13T16:37:46;2.23;;;1.10;;
29466;SDS011;60968;37.490;-122.288;2022-09-13T16:40:47;4.83;;;1.10;;
29466;SDS011;60968;37.490;-122.288;2022-09-13T16:43:48;3.50;;;1.00;;
29466;SDS011;60968;37.490;-122.288;2022-09-13T16:46:52;3.77;;;1.27;;
29466;SDS011;60968;37.490;-122.288;2022-09-13T16:49:56;5.10;;;1.40;;
29466;SDS011;60968;37.490;-122.288;2022-09-13T16:53:00;2.03;;;1.03;;
29466;SDS011;60968;37.490;-122.288;2022-09-13T16:56:08;5.20;;;1.43;;
29466;SDS011;60968;37.490;-122.288;2022-09-13T16:59:11;3.87;;;1.30;;
29466;SDS011;60968;37.490;-122.288;2022-09-13T17:02:12;3.07;;;1.00;;
29466;SDS011;60968;37.490;-122.288;2022-09-13T17:05:13;2.97;;;1.23;;
29466;SDS011;60968;37.490;-122.288;2022-09-13T17:08:14;2.53;;;1.27;;
29466;SDS011;60968;37.490;-122.288;2022-09-13T17:11:17;2.92;;;1.42;;
29466;SDS011;60968;37.490;-122.288;2022-09-13T17:14:20;5.10;;;1.88;;
29466;SDS011;60968;37.490;-122.288;2022-09-13T17:17:21;2.95;;;1.65;;
29466;SDS011;60968;37.490;-122.288;2022-09-13T17:20:21;2.63;;;1.98;;
29466;SDS011;60968;37.490;-122.288;2022-09-13T17:23:22;3.05;;;2.35;;
29466;SDS011;60968;37.490;-122.288;2022-09-13T17:26:23;5.20;;;2.60;;
29466;SDS011;60968;37.490;-122.288;2022-09-13T17:29:24;4.13;;;2.58;;
29466;SDS011;60968;37.490;-122.288;2022-09-13T17:32:25;2.78;;;2.30;;
29466;SDS011;60968;37.490;-122.288;2022-09-13T17:35:26;4.18;;;2.92;;
29466;SDS011;60968;37.490;-122.288;2022-09-13T17:38:27;3.00;;;2.78;;
29466;SDS011;60968;37.490;-122.288;2022-09-13T17:41:29;4.30;;;3.00;;
29466;SDS011;60968;37.490;-122.288;2022-09-13T17:44:30;5.57;;;3.45;;
29466;SDS011;60968;37.490;-122.288;2022-09-13T17:47:31;4.72;;;3.70;;
29466;SDS011;60968;37.490;-122.288;2022-09-13T17:50:32;3.45;;;3.13;;
29466;SDS011;60968;37.490;-122.288;2022-09-13T17:53:36;4.80;;;3.47;;
29466;SDS011;60968;37.490;-122.288;2022-09-13T17:56:40;4.82;;;2.60;;
29466;SDS011;60968;37.490;-122.288;2022-09-13T17:59:42;5.97;;;2.72;;
29466;SDS011;60968;37.490;-122.288;2022-09-13T18:02:43;4.90;;;2.38;;
29466;SDS011;60968;37.490;-122.288;2022-09-13T18:05:44;4.15;;;2.20;;
29466;SDS011;60968;37.490;-122.288;2022-09-13T18:08:51;4.10;;;1.90;;
29466;SDS011;60968;37.490;-122.288;2022-09-13T18:11:52;3.45;;;1.80;;
29466;SDS011;60968;37.490;-122.288;2022-09-13T18:14:54;5.47;;;1.85;;
29466;SDS011;60968;37.490;-122.288;2022-09-13T18:17:55;5.97;;;1.83;;
29466;SDS011;60968;37.490;-122.288;2022-09-13T18:20:56;3.53;;;1.40;;
29466;SDS011;60968;37.490;-122.288;2022-09-13T18:23:57;8.60;;;2.03;;
29466;SDS011;60968;37.490;-122.288;2022-09-13T18:26:59;6.53;;;1.90;;
29466;SDS011;60968;37.490;-122.288;2022-09-13T18:30:01;4.43;;;1.63;;
29466;SDS011;60968;37.490;-122.288;2022-09-13T18:33:02;3.17;;;1.80;;
29466;SDS011;60968;37.490;-122.288;2022-09-13T18:36:03;4.67;;;1.77;;
29466;SDS011;60968;37.490;-122.288;2022-09-13T18:39:06;4.23;;;1.50;;
29466;SDS011;60968;37.490;-122.288;2022-09-13T18:42:11;5.77;;;1.80;;
29466;SDS011;60968;37.490;-122.288;2022-09-13T18:45:12;9.27;;;2.20;;
29466;SDS011;60968;37.490;-122.288;2022-09-13T18:48:13;6.37;;;1.80;;
29466;SDS011;60968;37.490;-122.288;2022-09-13T18:51:16;4.83;;;2.00;;
29466;SDS011;60968;37.490;-122.288;2022-09-13T18:54:18;4.07;;;2.03;;
29466;SDS011;60968;37.490;-122.288;2022-09-13T18:57:19;5.43;;;1.70;;
29466;SDS011;60968;37.490;-122.288;2022-09-13T19:00:20;7.90;;;1.90;;
29466;SDS011;60968;37.490;-122.288;2022-09-13T19:03:21;4.03;;;1.40;;
29466;SDS011;60968;37.490;-122.288;2022-09-13T19:06:23;4.30;;;1.60;;
29466;SDS011;60968;37.490;-122.288;2022-09-13T19:09:25;3.43;;;1.70;;
29466;SDS011;60968;37.490;-122.288;2022-09-13T19:12:26;4.77;;;1.70;;
29466;SDS011;60968;37.490;-122.288;2022-09-13T19:15:28;5.40;;;2.00;;
29466;SDS011;60968;37.490;-122.288;2022-09-13T19:18:30;6.67;;;1.70;;
29466;SDS011;60968;37.490;-122.288;2022-09-13T19:21:35;4.13;;;1.60;;
29466;SDS011;60968;37.490;-122.288;2022-09-13T19:24:36;5.03;;;1.67;;
29466;SDS011;60968;37.490;-122.288;2022-09-13T19:27:36;3.93;;;1.33;;
29466;SDS011;60968;37.490;-122.288;2022-09-13T19:30:39;5.30;;;1.70;;
29466;SDS011;60968;37.490;-122.288;2022-09-13T19:33:40;3.00;;;1.33;;
29466;SDS011;60968;37.490;-122.288;2022-09-13T19:36:43;3.20;;;1.43;;
29466;SDS011;60968;37.490;-122.288;2022-09-13T19:39:44;3.50;;;1.50;;
29466;SDS011;60968;37.490;-122.288;2022-09-13T19:42:46;2.83;;;1.60;;
29466;SDS011;60968;37.490;-122.288;2022-09-13T19:45:54;3.93;;;1.37;;
29466;SDS011;60968;37.490;-122.288;2022-09-13T19:49:03;3.97;;;1.43;;
29466;SDS011;60968;37.490;-122.288;2022-09-13T19:52:05;3.90;;;1.47;;
29466;SDS011;60968;37.490;-122.288;2022-09-13T19:55:07;4.33;;;1.67;;
29466;SDS011;60968;37.490;-122.288;2022-09-13T19:58:14;3.50;;;1.20;;
29466;SDS011;60968;37.490;-122.288;2022-09-13T20:01:20;4.50;;;1.33;;
29466;SDS011;60968;37.490;-122.288;2022-09-13T20:04:25;5.43;;;1.53;;
29466;SDS011;60968;37.490;-122.288;2022-09-13T20:07:26;4.97;;;1.67;;
29466;SDS011;60968;37.490;-122.288;2022-09-13T20:10:27;3.17;;;1.50;;
29466;SDS011;60968;37.490;-122.288;2022-09-13T20:13:29;3.10;;;1.60;;
29466;SDS011;60968;37.490;-122.288;2022-09-13T20:16:33;3.63;;;1.30;;
29466;SDS011;60968;37.490;-122.288;2022-09-13T20:19:36;3.37;;;1.67;;
29466;SDS011;60968;37.490;-122.288;2022-09-13T20:22:38;4.63;;;1.87;;
29466;SDS011;60968;37.490;-122.288;2022-09-13T20:25:38;2.70;;;1.40;;
29466;SDS011;60968;37.490;-122.288;2022-09-13T20:28:39;2.43;;;1.23;;
29466;SDS011;60968;37.490;-122.288;2022-09-13T20:31:40;4.50;;;1.37;;
29466;SDS011;60968;37.490;-122.288;2022-09-13T20:34:41;2.77;;;1.43;;
29466;SDS011;60968;37.490;-122.288;2022-09-13T20:37:43;5.80;;;1.50;;
29466;SDS011;60968;37.490;-122.288;2022-09-13T20:40:44;6.87;;;1.63;;
29466;SDS011;60968;37.490;-122.288;2022-09-13T20:43:46;4.70;;;1.50;;